createdAt,value
2018-06-27T05:23:54.989Z,62.00
2018-06-27T05:26:27.441Z,62.00
2018-06-27T05:28:59.881Z,60.00
2018-06-27T05:31:32.304Z,60.50
2018-06-27T05:34:05.153Z,59.10
2018-06-27T05:36:37.577Z,57.90
2018-06-27T05:39:10.046Z,57.50
2018-06-27T05:41:42.470Z,56.00
2018-06-27T05:44:14.905Z,54.90
2018-06-27T05:46:47.554Z,53.70
2018-06-27T05:49:20.308Z,52.90
2018-06-27T05:51:52.736Z,52.10
2018-06-27T05:54:25.244Z,52.00
2018-06-27T05:56:57.690Z,51.60
2018-06-27T05:59:30.113Z,52.70
2018-06-27T06:02:02.532Z,52.80
2018-06-27T06:04:34.966Z,51.50
2018-06-27T06:07:07.386Z,50.80
2018-06-27T06:09:39.817Z,49.30
2018-06-27T06:12:12.498Z,49.90
2018-06-27T06:14:44.949Z,49.90
2018-06-27T06:19:49.677Z,48.00
2018-06-27T06:22:22.396Z,48.20
2018-06-27T06:24:54.825Z,48.60
2018-06-27T06:27:27.235Z,47.00
2018-06-27T06:29:59.661Z,48.00
2018-06-27T06:32:32.425Z,48.10
2018-06-27T06:35:04.833Z,47.60
2018-06-27T06:37:37.242Z,47.90
2018-06-27T06:40:09.917Z,46.90
2018-06-27T06:42:43.473Z,45.60
2018-06-27T06:45:16.405Z,45.80
2018-06-27T06:47:49.081Z,46.30
2018-06-27T06:50:22.067Z,45.20
2018-06-27T06:52:54.481Z,45.40
2018-06-27T06:55:26.954Z,45.90
2018-06-27T06:57:59.405Z,44.90
2018-06-27T07:00:31.841Z,44.20
2018-06-27T07:03:04.310Z,44.70
2018-06-27T07:05:37.218Z,45.00
2018-06-27T07:08:09.629Z,44.00
2018-06-27T07:10:42.071Z,44.30
2018-06-27T07:13:14.472Z,43.60
2018-06-27T07:15:46.910Z,43.40
2018-06-27T07:18:19.637Z,43.90
2018-06-27T07:20:52.075Z,43.90
2018-06-27T07:23:24.486Z,43.30
2018-06-27T07:25:56.913Z,42.70
2018-06-27T07:28:29.362Z,42.50
2018-06-27T07:31:01.810Z,42.80
2018-06-27T07:36:06.844Z,42.00
2018-06-27T07:38:39.893Z,42.10
2018-06-27T07:41:12.326Z,41.70
2018-06-27T07:43:44.738Z,42.60
2018-06-27T07:46:17.167Z,49.30
2018-06-27T07:51:21.824Z,40.70
2018-06-27T07:53:54.529Z,40.30
2018-06-27T07:56:27.214Z,41.30
2018-06-27T07:58:59.893Z,41.40
2018-06-27T08:01:32.294Z,41.70
2018-06-27T08:04:05.046Z,41.10
2018-06-27T08:09:09.653Z,40.70
2018-06-27T08:11:42.341Z,40.80
2018-06-27T08:14:15.037Z,39.80
2018-06-27T08:16:47.718Z,40.70
2018-06-27T08:19:20.100Z,41.20
2018-06-27T08:21:53.073Z,41.30
2018-06-27T08:24:25.470Z,41.10
2018-06-27T08:26:57.901Z,41.60
2018-06-27T08:29:30.307Z,44.60
2018-06-27T08:32:02.711Z,45.20
2018-06-27T08:34:35.414Z,45.10
2018-06-27T08:37:08.079Z,44.50
2018-06-27T08:39:40.744Z,44.80
2018-06-27T08:42:13.150Z,45.80
2018-06-27T08:44:46.159Z,45.30
2018-06-27T08:47:18.565Z,44.20
2018-06-27T08:49:50.948Z,44.60
2018-06-27T08:52:23.381Z,45.40
2018-06-27T08:54:55.770Z,46.00
2018-06-27T08:57:28.218Z,46.60
2018-06-27T09:00:00.673Z,47.20
2018-06-27T09:02:33.097Z,47.20
2018-06-27T09:05:05.837Z,47.60
2018-06-27T09:07:38.290Z,47.00
2018-06-27T09:10:11.002Z,46.40
2018-06-27T09:12:43.681Z,46.60
2018-06-27T09:15:16.110Z,46.70
2018-06-27T09:17:48.833Z,47.60
2018-06-27T09:20:21.513Z,47.40
2018-06-27T09:22:54.263Z,47.90
2018-06-27T09:25:26.678Z,47.40
2018-06-27T09:27:59.345Z,47.40
2018-06-27T09:30:31.757Z,47.90
2018-06-27T09:33:04.162Z,47.30
2018-06-27T09:35:36.578Z,48.20
2018-06-27T09:38:09.244Z,48.70
2018-06-27T09:40:41.661Z,50.10
2018-06-27T09:43:14.070Z,49.60
2018-06-27T09:45:46.770Z,48.80
2018-06-27T09:48:19.450Z,49.10
2018-06-27T09:50:51.865Z,48.50
2018-06-27T09:53:24.287Z,47.60
2018-06-27T09:55:56.689Z,49.30
2018-06-27T09:58:29.077Z,49.60
2018-06-27T10:01:01.474Z,49.80
2018-06-27T10:03:34.125Z,49.20
2018-06-27T10:06:06.809Z,48.70
2018-06-27T10:08:39.205Z,49.40
2018-06-27T10:11:11.590Z,49.00
2018-06-27T10:13:44.230Z,48.60
2018-06-27T10:16:16.917Z,49.90
2018-06-27T10:18:49.317Z,50.00
2018-06-27T10:21:21.710Z,50.30
2018-06-27T10:23:54.141Z,49.80
2018-06-27T10:26:26.834Z,49.40
2018-06-27T10:28:59.228Z,49.00
2018-06-27T10:31:31.885Z,48.90
2018-06-27T10:34:04.280Z,48.40
2018-06-27T10:36:36.677Z,48.30
2018-06-27T10:39:09.082Z,48.60
2018-06-27T10:41:41.482Z,48.80
2018-06-27T10:44:14.148Z,48.40
2018-06-27T10:46:46.813Z,47.40
2018-06-27T10:49:19.229Z,47.40
2018-06-27T10:51:51.704Z,46.70
2018-06-27T10:56:56.411Z,48.20
2018-06-27T10:59:29.073Z,48.00
2018-06-27T11:02:01.784Z,47.60
2018-06-27T11:04:34.192Z,47.10
2018-06-27T11:07:06.665Z,47.50
2018-06-27T11:09:39.072Z,47.00
2018-06-27T11:12:11.490Z,47.60
2018-06-27T11:14:44.010Z,48.10
2018-06-27T11:17:16.855Z,48.10
2018-06-27T11:19:49.535Z,47.40
2018-06-27T11:22:22.185Z,46.60
2018-06-27T11:24:54.853Z,46.50
2018-06-27T11:27:27.279Z,45.40
2018-06-27T11:29:59.675Z,46.30
2018-06-27T11:32:32.605Z,46.30
2018-06-27T11:35:05.264Z,45.50
2018-06-27T11:37:37.688Z,47.40
2018-06-27T11:40:10.845Z,49.40
2018-06-27T11:42:43.274Z,51.60
2018-06-27T11:45:15.744Z,52.20
2018-06-27T11:47:48.486Z,52.30
2018-06-27T11:50:20.934Z,52.50
2018-06-27T11:52:53.370Z,52.60
2018-06-27T11:55:25.785Z,52.10
2018-06-27T11:57:58.232Z,52.50
2018-06-27T12:00:30.641Z,53.00
2018-06-27T12:03:03.052Z,53.70
2018-06-27T12:05:35.785Z,53.90
2018-06-27T12:08:08.221Z,54.20
2018-06-27T12:10:40.625Z,54.60
2018-06-27T12:13:13.041Z,53.00
2018-06-27T12:15:45.449Z,51.70
2018-06-27T12:18:17.874Z,49.00
2018-06-27T12:20:50.292Z,47.00
2018-06-27T12:23:22.714Z,47.30
2018-06-27T12:25:55.148Z,47.70
2018-06-27T12:28:27.569Z,47.60
2018-06-27T12:31:00.078Z,47.80
2018-06-27T12:33:32.510Z,46.90
2018-06-27T12:36:05.637Z,47.60
2018-06-27T12:38:38.069Z,48.30
2018-06-27T12:41:10.550Z,48.60
2018-06-27T12:43:42.966Z,48.60
2018-06-27T12:46:15.700Z,47.70
2018-06-27T12:48:48.336Z,47.90
2018-06-27T12:51:20.733Z,48.20
2018-06-27T12:53:53.419Z,47.50
2018-06-27T12:56:26.518Z,47.10
2018-06-27T12:58:58.947Z,45.60
2018-06-27T13:01:31.350Z,45.20
2018-06-27T13:04:03.822Z,45.10
2018-06-27T13:06:36.308Z,44.70
2018-06-27T13:09:09.256Z,45.90
2018-06-27T13:11:41.876Z,46.40
2018-06-27T13:14:14.680Z,46.30
2018-06-27T13:16:47.086Z,46.50
2018-06-27T13:19:19.757Z,46.80
2018-06-27T13:21:52.446Z,45.90
2018-06-27T13:24:25.162Z,45.90
2018-06-27T13:26:57.590Z,45.90
2018-06-27T13:29:30.322Z,46.20
2018-06-27T13:32:02.770Z,46.00
2018-06-27T13:34:35.546Z,46.30
2018-06-27T13:37:07.966Z,46.70
2018-06-27T13:39:40.418Z,46.80
2018-06-27T13:42:12.847Z,47.00
2018-06-27T13:44:45.541Z,46.80
2018-06-27T13:47:17.958Z,46.60
2018-06-27T13:49:50.449Z,46.90
2018-06-27T13:52:22.864Z,47.40
2018-06-27T13:54:55.277Z,47.50
2018-06-27T13:57:28.097Z,48.10
2018-06-27T14:00:01.133Z,48.40
2018-06-27T14:02:33.778Z,48.20
2018-06-27T14:05:06.201Z,48.40
2018-06-27T14:07:38.618Z,49.40
2018-06-27T14:10:11.037Z,48.40
2018-06-27T14:12:43.599Z,48.30
2018-06-27T14:15:16.380Z,48.20
2018-06-27T14:17:48.782Z,48.60
2018-06-27T14:20:21.195Z,48.60
2018-06-27T14:22:53.602Z,48.20
2018-06-27T14:25:26.587Z,47.00
2018-06-27T14:27:58.989Z,47.50
2018-06-27T14:30:31.413Z,48.40
2018-06-27T14:33:03.842Z,48.70
2018-06-27T14:35:36.328Z,49.00
2018-06-27T14:38:08.832Z,47.80
2018-06-27T14:40:41.534Z,47.70
2018-06-27T14:43:13.942Z,48.00
2018-06-27T14:45:46.417Z,48.00
2018-06-27T14:48:18.826Z,47.00
2018-06-27T14:50:51.501Z,47.80
2018-06-27T14:53:23.901Z,47.40
2018-06-27T14:55:56.413Z,47.70
2018-06-27T14:58:29.048Z,48.10
2018-06-27T15:01:01.622Z,47.40
2018-06-27T15:03:34.143Z,46.70
2018-06-27T15:06:07.175Z,46.20
2018-06-27T15:08:39.622Z,46.20
2018-06-27T15:11:12.026Z,46.40
2018-06-27T15:13:44.457Z,45.50
2018-06-27T15:16:16.870Z,45.90
2018-06-27T15:18:49.329Z,46.00
2018-06-27T15:21:21.742Z,45.90
2018-06-27T15:23:54.277Z,45.90
2018-06-27T15:26:26.689Z,46.40
2018-06-27T15:28:59.109Z,46.70
2018-06-27T15:31:31.533Z,45.10
2018-06-27T15:34:04.306Z,44.50
2018-06-27T15:36:36.762Z,44.70
2018-06-27T15:39:09.141Z,44.70
2018-06-27T15:41:41.785Z,44.60
2018-06-27T15:44:14.509Z,44.50
2018-06-27T15:46:46.905Z,43.70
2018-06-27T15:49:19.326Z,42.70
2018-06-27T15:51:51.909Z,42.60
2018-06-27T15:54:24.474Z,41.40
2018-06-27T15:56:56.926Z,41.70
2018-06-27T15:59:29.356Z,41.90
2018-06-27T16:02:01.770Z,41.10
2018-06-27T16:04:34.211Z,41.00
2018-06-27T16:07:06.941Z,41.00
2018-06-27T16:09:39.659Z,41.00
2018-06-27T16:12:12.062Z,40.80
2018-06-27T16:14:44.481Z,40.70
2018-06-27T16:17:17.221Z,41.10
2018-06-27T16:19:49.354Z,41.40
2018-06-27T16:22:21.784Z,41.80
2018-06-27T16:24:54.218Z,41.80
2018-06-27T16:27:27.076Z,41.50
2018-06-27T16:29:59.534Z,42.20
2018-06-27T16:32:31.934Z,42.50
2018-06-27T16:35:04.472Z,43.00
2018-06-27T16:37:36.882Z,42.70
2018-06-27T16:40:09.297Z,43.20
2018-06-27T16:42:41.733Z,43.30
2018-06-27T16:45:14.399Z,43.80
2018-06-27T16:47:47.154Z,44.10
2018-06-27T16:50:19.569Z,44.40
2018-06-27T16:52:51.998Z,44.80
2018-06-27T16:55:24.421Z,45.20
2018-06-27T16:57:57.093Z,45.50
2018-06-27T17:00:29.555Z,45.80
2018-06-27T17:03:01.936Z,46.00
2018-06-27T17:05:34.329Z,46.10
2018-06-27T17:08:06.710Z,46.70
2018-06-27T17:10:39.113Z,46.60
2018-06-27T17:13:11.533Z,47.30
2018-06-27T17:15:43.925Z,47.40
2018-06-27T17:18:16.317Z,47.60
2018-06-27T17:20:48.709Z,47.50
2018-06-27T17:23:21.349Z,47.30
2018-06-27T17:25:54.053Z,47.10
2018-06-27T17:28:26.456Z,47.20
2018-06-27T17:30:58.841Z,47.00
2018-06-27T17:33:31.221Z,47.10
2018-06-27T17:36:03.635Z,47.50
2018-06-27T17:38:36.063Z,48.00
2018-06-27T17:41:08.954Z,48.00
2018-06-27T17:43:41.338Z,47.80
2018-06-27T17:46:13.762Z,47.80
2018-06-27T17:51:18.402Z,47.10
2018-06-27T17:53:50.811Z,46.40
2018-06-27T17:56:23.265Z,46.70
2018-06-27T17:58:55.636Z,46.60
2018-06-27T18:01:28.054Z,46.20
2018-06-27T18:04:00.753Z,46.40
2018-06-27T18:06:33.438Z,46.40
2018-06-27T18:09:07.637Z,46.50
2018-06-27T18:11:40.047Z,46.80
2018-06-27T18:14:12.426Z,47.00
2018-06-27T18:16:44.892Z,47.10
2018-06-27T18:19:17.437Z,47.10
2018-06-27T18:21:49.833Z,47.40
2018-06-27T18:24:22.230Z,47.60
2018-06-27T18:26:54.635Z,47.90
2018-06-27T18:29:27.734Z,48.10
2018-06-27T18:32:00.142Z,48.50
2018-06-27T18:34:32.518Z,48.70
2018-06-27T18:37:04.907Z,49.00
2018-06-27T18:39:37.286Z,49.10
2018-06-27T18:42:09.926Z,49.40
2018-06-27T18:44:42.302Z,49.60
2018-06-27T18:47:14.710Z,49.50
2018-06-27T18:49:47.400Z,49.40
2018-06-27T18:52:20.073Z,49.80
2018-06-27T18:54:52.631Z,49.90
2018-06-27T18:57:25.042Z,50.10
2018-06-27T18:59:57.421Z,50.20
2018-06-27T19:02:30.123Z,50.40
2018-06-27T19:05:02.838Z,50.40
2018-06-27T19:07:35.226Z,50.80
2018-06-27T19:10:07.833Z,50.60
2018-06-27T19:12:40.553Z,50.50
2018-06-27T19:15:12.922Z,50.80
2018-06-27T19:17:45.309Z,50.90
2018-06-27T19:20:17.889Z,51.30
2018-06-27T19:22:50.325Z,51.40
2018-06-27T19:25:22.722Z,52.00
2018-06-27T19:27:55.433Z,51.60
2018-06-27T19:30:27.816Z,51.60
2018-06-27T19:33:00.506Z,52.00
2018-06-27T19:35:33.026Z,51.90
2018-06-27T19:38:05.668Z,52.10
2018-06-27T19:40:38.390Z,52.40
2018-06-27T19:43:11.369Z,52.60
2018-06-27T19:45:43.818Z,52.60
2018-06-27T19:48:16.141Z,52.80
2018-06-27T19:50:48.532Z,52.90
2018-06-27T19:53:20.936Z,53.00
2018-06-27T19:55:53.321Z,53.20
2018-06-27T19:58:25.860Z,53.70
2018-06-27T20:00:58.194Z,53.50
2018-06-27T20:03:30.595Z,53.60
2018-06-27T20:06:02.989Z,53.60
2018-06-27T20:08:35.685Z,53.80
2018-06-27T20:11:08.181Z,54.00
2018-06-27T20:13:40.575Z,54.10
2018-06-27T20:16:12.954Z,54.10
2018-06-27T20:18:46.005Z,54.20
2018-06-27T20:21:19.146Z,54.20
2018-06-27T20:23:51.569Z,54.40
2018-06-27T20:26:23.951Z,54.70
2018-06-27T20:28:56.617Z,54.90
2018-06-27T20:31:28.996Z,55.10
2018-06-27T20:34:01.408Z,55.20
2018-06-27T20:36:34.047Z,55.50
2018-06-27T20:39:07.784Z,55.50
2018-06-27T20:41:40.234Z,55.80
2018-06-27T20:44:12.621Z,56.00
2018-06-27T20:46:45.217Z,56.30
2018-06-27T20:49:17.905Z,56.60
2018-06-27T20:51:50.296Z,56.70
2018-06-27T20:54:22.802Z,57.00
